Terminal Aerodrome Forecast
Issued by NWS

Home | Current Version | Previous Version | Text Only | Print | Product List | Glossary On
Versions: 1 2 3 4 5 6 7 8 9 10 11 12 13 14 15 16
000
FTUS41 KBGM 240500
TAFITH
TAF
KITH 240531Z 2406/2506 32008KT P6SM SKC
     FM241400 32015G25KT P6SM SCT250
     FM242300 34005KT P6SM SCT250=

USA.gov is the U.S. government's official web portal to all federal, state and local government web resources and services.